Terminal Aerodrome Forecast
Issued by NWS Atlanta, GA

Home | Current Version | Previous Version | Text Only | Print | Product List | Glossary On
Versions: 1 2 3 4 5 6 7 8 9 10 11 12 13 14 15 16 17 18 19 20 21 22 23 24 25 26 27 28 29 30 31 32 33 34 35 36 37
000
FTUS42 KFFC 270341 AAB
TAFATL
TAF AMD
KATL 270341Z 2704/2806 23007KT P6SM SCT050 BKN200
      TEMPO 2704/2705 6SM -SHRA BR BKN040
     FM270500 30010G15KT 6SM -SHRA BR SCT010 OVC020
     FM270700 31010KT P6SM -RA OVC008
     FM271100 32012G20KT P6SM BKN020
     FM271500 33015G25KT P6SM SCT025 BKN050
     FM272100 32012G22KT P6SM BKN070
     FM280300 32012KT P6SM SCT100=

USA.gov is the U.S. government's official web portal to all federal, state and local government web resources and services.